sensor_id;sensor_type;location;lat;lon;timestamp;P1;durP1;ratioP1;P2;durP2;ratioP2
52033;SDS011;38045;52.988;6.536;2023-08-30T00:00:07;22.60;;;17.75;;
52033;SDS011;38045;52.988;6.536;2023-08-30T00:02:35;18.02;;;16.35;;
52033;SDS011;38045;52.988;6.536;2023-08-30T00:05:02;18.85;;;16.80;;
52033;SDS011;38045;52.988;6.536;2023-08-30T00:07:29;20.48;;;17.92;;
52033;SDS011;38045;52.988;6.536;2023-08-30T00:09:56;18.55;;;16.65;;
52033;SDS011;38045;52.988;6.536;2023-08-30T00:12:22;19.63;;;16.02;;
52033;SDS011;38045;52.988;6.536;2023-08-30T00:14:48;18.63;;;16.73;;
52033;SDS011;38045;52.988;6.536;2023-08-30T00:17:14;17.70;;;15.85;;
52033;SDS011;38045;52.988;6.536;2023-08-30T00:19:40;18.67;;;16.88;;
52033;SDS011;38045;52.988;6.536;2023-08-30T00:22:05;19.95;;;18.05;;
52033;SDS011;38045;52.988;6.536;2023-08-30T00:24:34;17.13;;;15.63;;
52033;SDS011;38045;52.988;6.536;2023-08-30T00:27:02;19.52;;;17.58;;
52033;SDS011;38045;52.988;6.536;2023-08-30T00:29:28;21.65;;;19.63;;
52033;SDS011;38045;52.988;6.536;2023-08-30T00:31:55;21.55;;;17.60;;
52033;SDS011;38045;52.988;6.536;2023-08-30T00:34:20;21.65;;;18.55;;
52033;SDS011;38045;52.988;6.536;2023-08-30T00:36:46;20.30;;;17.95;;
52033;SDS011;38045;52.988;6.536;2023-08-30T00:39:12;22.40;;;18.52;;
52033;SDS011;38045;52.988;6.536;2023-08-30T00:41:38;21.10;;;18.95;;
52033;SDS011;38045;52.988;6.536;2023-08-30T00:44:04;24.00;;;17.67;;
52033;SDS011;38045;52.988;6.536;2023-08-30T00:46:30;19.60;;;17.50;;
52033;SDS011;38045;52.988;6.536;2023-08-30T00:48:57;20.38;;;18.17;;
52033;SDS011;38045;52.988;6.536;2023-08-30T00:51:24;19.88;;;17.63;;
52033;SDS011;38045;52.988;6.536;2023-08-30T00:53:50;20.23;;;18.08;;
52033;SDS011;38045;52.988;6.536;2023-08-30T00:56:16;18.70;;;16.83;;
52033;SDS011;38045;52.988;6.536;2023-08-30T00:58:43;20.40;;;18.35;;
52033;SDS011;38045;52.988;6.536;2023-08-30T01:01:09;19.80;;;17.20;;
52033;SDS011;38045;52.988;6.536;2023-08-30T01:03:34;20.58;;;17.65;;
52033;SDS011;38045;52.988;6.536;2023-08-30T01:06:00;19.08;;;17.20;;
52033;SDS011;38045;52.988;6.536;2023-08-30T01:08:26;21.10;;;18.13;;
52033;SDS011;38045;52.988;6.536;2023-08-30T01:11:03;19.67;;;17.77;;
52033;SDS011;38045;52.988;6.536;2023-08-30T01:13:30;19.17;;;17.08;;
52033;SDS011;38045;52.988;6.536;2023-08-30T01:15:58;20.73;;;18.70;;
52033;SDS011;38045;52.988;6.536;2023-08-30T01:18:29;19.08;;;17.10;;
52033;SDS011;38045;52.988;6.536;2023-08-30T01:20:59;20.50;;;18.42;;
52033;SDS011;38045;52.988;6.536;2023-08-30T01:28:30;21.07;;;18.73;;
52033;SDS011;38045;52.988;6.536;2023-08-30T01:30:58;18.67;;;16.80;;
52033;SDS011;38045;52.988;6.536;2023-08-30T01:33:25;17.40;;;15.70;;
52033;SDS011;38045;52.988;6.536;2023-08-30T01:35:53;19.27;;;16.23;;
52033;SDS011;38045;52.988;6.536;2023-08-30T01:38:23;19.27;;;17.25;;
52033;SDS011;38045;52.988;6.536;2023-08-30T01:40:52;17.27;;;14.85;;
52033;SDS011;38045;52.988;6.536;2023-08-30T01:43:19;22.33;;;16.90;;
52033;SDS011;38045;52.988;6.536;2023-08-30T01:45:46;17.75;;;15.98;;
52033;SDS011;38045;52.988;6.536;2023-08-30T01:48:16;18.48;;;16.08;;
52033;SDS011;38045;52.988;6.536;2023-08-30T01:50:43;18.35;;;15.73;;
52033;SDS011;38045;52.988;6.536;2023-08-30T01:53:10;18.40;;;16.73;;
52033;SDS011;38045;52.988;6.536;2023-08-30T01:55:36;16.92;;;15.23;;
52033;SDS011;38045;52.988;6.536;2023-08-30T01:58:03;16.40;;;14.85;;
52033;SDS011;38045;52.988;6.536;2023-08-30T02:00:29;17.00;;;15.27;;
52033;SDS011;38045;52.988;6.536;2023-08-30T02:02:55;17.40;;;15.65;;
52033;SDS011;38045;52.988;6.536;2023-08-30T02:05:22;17.08;;;15.02;;
52033;SDS011;38045;52.988;6.536;2023-08-30T02:10:31;17.23;;;15.63;;
52033;SDS011;38045;52.988;6.536;2023-08-30T02:13:01;17.70;;;16.00;;
52033;SDS011;38045;52.988;6.536;2023-08-30T02:15:28;21.08;;;14.23;;
52033;SDS011;38045;52.988;6.536;2023-08-30T02:17:55;14.50;;;13.02;;
52033;SDS011;38045;52.988;6.536;2023-08-30T02:20:21;15.20;;;13.70;;
52033;SDS011;38045;52.988;6.536;2023-08-30T02:22:47;16.40;;;14.68;;
52033;SDS011;38045;52.988;6.536;2023-08-30T02:25:13;14.32;;;12.35;;
52033;SDS011;38045;52.988;6.536;2023-08-30T02:27:39;15.32;;;13.48;;
52033;SDS011;38045;52.988;6.536;2023-08-30T02:30:05;15.65;;;14.07;;
52033;SDS011;38045;52.988;6.536;2023-08-30T02:32:31;16.00;;;13.10;;
52033;SDS011;38045;52.988;6.536;2023-08-30T02:34:57;16.52;;;14.52;;
52033;SDS011;38045;52.988;6.536;2023-08-30T02:37:22;21.45;;;15.43;;
52033;SDS011;38045;52.988;6.536;2023-08-30T02:39:48;15.73;;;13.20;;
52033;SDS011;38045;52.988;6.536;2023-08-30T02:42:14;15.77;;;14.07;;
52033;SDS011;38045;52.988;6.536;2023-08-30T02:44:40;14.23;;;12.75;;
52033;SDS011;38045;52.988;6.536;2023-08-30T02:47:05;14.90;;;13.27;;
52033;SDS011;38045;52.988;6.536;2023-08-30T02:49:31;15.25;;;13.65;;
52033;SDS011;38045;52.988;6.536;2023-08-30T02:51:56;20.65;;;14.32;;
52033;SDS011;38045;52.988;6.536;2023-08-30T02:54:22;13.63;;;12.23;;
52033;SDS011;38045;52.988;6.536;2023-08-30T02:56:48;17.95;;;14.02;;
52033;SDS011;38045;52.988;6.536;2023-08-30T02:59:14;17.77;;;15.18;;
52033;SDS011;38045;52.988;6.536;2023-08-30T03:01:40;17.15;;;13.55;;
52033;SDS011;38045;52.988;6.536;2023-08-30T03:04:05;15.40;;;13.23;;
52033;SDS011;38045;52.988;6.536;2023-08-30T03:06:32;16.95;;;14.40;;
52033;SDS011;38045;52.988;6.536;2023-08-30T03:08:59;16.08;;;12.93;;
52033;SDS011;38045;52.988;6.536;2023-08-30T03:11:25;14.02;;;12.70;;
52033;SDS011;38045;52.988;6.536;2023-08-30T03:13:50;17.20;;;13.85;;
52033;SDS011;38045;52.988;6.536;2023-08-30T03:16:18;17.40;;;12.80;;
52033;SDS011;38045;52.988;6.536;2023-08-30T03:18:44;14.65;;;13.25;;
52033;SDS011;38045;52.988;6.536;2023-08-30T03:21:10;14.63;;;13.20;;
52033;SDS011;38045;52.988;6.536;2023-08-30T03:23:36;17.00;;;12.60;;
52033;SDS011;38045;52.988;6.536;2023-08-30T03:26:09;13.98;;;12.48;;
52033;SDS011;38045;52.988;6.536;2023-08-30T03:28:36;15.45;;;13.98;;
52033;SDS011;38045;52.988;6.536;2023-08-30T03:31:02;13.95;;;12.68;;
52033;SDS011;38045;52.988;6.536;2023-08-30T03:33:36;15.32;;;13.75;;
52033;SDS011;38045;52.988;6.536;2023-08-30T03:36:02;14.90;;;12.40;;
52033;SDS011;38045;52.988;6.536;2023-08-30T03:38:28;17.50;;;13.55;;
52033;SDS011;38045;52.988;6.536;2023-08-30T03:40:53;17.80;;;12.55;;
52033;SDS011;38045;52.988;6.536;2023-08-30T03:43:19;16.83;;;12.88;;
52033;SDS011;38045;52.988;6.536;2023-08-30T03:45:45;14.15;;;12.55;;
52033;SDS011;38045;52.988;6.536;2023-08-30T03:48:11;11.93;;;10.77;;
52033;SDS011;38045;52.988;6.536;2023-08-30T03:50:36;14.15;;;12.68;;
52033;SDS011;38045;52.988;6.536;2023-08-30T03:53:02;13.68;;;12.10;;
52033;SDS011;38045;52.988;6.536;2023-08-30T03:55:28;16.88;;;13.75;;
52033;SDS011;38045;52.988;6.536;2023-08-30T03:57:53;19.25;;;13.15;;
52033;SDS011;38045;52.988;6.536;2023-08-30T04:00:19;13.02;;;11.82;;
52033;SDS011;38045;52.988;6.536;2023-08-30T04:02:45;15.60;;;14.10;;
52033;SDS011;38045;52.988;6.536;2023-08-30T04:05:10;17.75;;;13.02;;
52033;SDS011;38045;52.988;6.536;2023-08-30T04:07:36;18.58;;;14.13;;
52033;SDS011;38045;52.988;6.536;2023-08-30T04:10:02;15.27;;;13.80;;
52033;SDS011;38045;52.988;6.536;2023-08-30T04:12:31;14.68;;;12.73;;
52033;SDS011;38045;52.988;6.536;2023-08-30T04:14:56;14.02;;;12.73;;
52033;SDS011;38045;52.988;6.536;2023-08-30T04:17:22;16.25;;;14.48;;
52033;SDS011;38045;52.988;6.536;2023-08-30T04:19:51;14.20;;;12.68;;
52033;SDS011;38045;52.988;6.536;2023-08-30T04:22:17;15.80;;;12.88;;
52033;SDS011;38045;52.988;6.536;2023-08-30T04:24:43;16.15;;;14.25;;
52033;SDS011;38045;52.988;6.536;2023-08-30T04:27:08;13.73;;;12.32;;
52033;SDS011;38045;52.988;6.536;2023-08-30T04:29:34;16.63;;;14.52;;
52033;SDS011;38045;52.988;6.536;2023-08-30T04:31:59;15.07;;;13.48;;
52033;SDS011;38045;52.988;6.536;2023-08-30T04:34:25;16.98;;;14.85;;
52033;SDS011;38045;52.988;6.536;2023-08-30T04:36:51;16.13;;;13.85;;
52033;SDS011;38045;52.988;6.536;2023-08-30T04:39:17;16.27;;;12.90;;
52033;SDS011;38045;52.988;6.536;2023-08-30T04:41:42;17.45;;;15.57;;
52033;SDS011;38045;52.988;6.536;2023-08-30T04:44:08;16.90;;;15.05;;
52033;SDS011;38045;52.988;6.536;2023-08-30T04:46:34;15.93;;;12.48;;
52033;SDS011;38045;52.988;6.536;2023-08-30T04:48:59;15.02;;;13.38;;
52033;SDS011;38045;52.988;6.536;2023-08-30T04:51:26;15.68;;;14.00;;
52033;SDS011;38045;52.988;6.536;2023-08-30T04:53:51;15.93;;;14.43;;
52033;SDS011;38045;52.988;6.536;2023-08-30T04:56:17;14.90;;;13.35;;
52033;SDS011;38045;52.988;6.536;2023-08-30T04:58:43;21.35;;;16.70;;
52033;SDS011;38045;52.988;6.536;2023-08-30T05:01:09;17.65;;;15.95;;
52033;SDS011;38045;52.988;6.536;2023-08-30T05:03:36;17.42;;;15.60;;
52033;SDS011;38045;52.988;6.536;2023-08-30T05:06:01;14.85;;;13.27;;
52033;SDS011;38045;52.988;6.536;2023-08-30T05:08:27;16.48;;;13.77;;
52033;SDS011;38045;52.988;6.536;2023-08-30T05:10:54;16.45;;;14.43;;
52033;SDS011;38045;52.988;6.536;2023-08-30T05:13:20;15.63;;;14.02;;
52033;SDS011;38045;52.988;6.536;2023-08-30T05:15:45;17.33;;;15.40;;
52033;SDS011;38045;52.988;6.536;2023-08-30T05:18:11;15.43;;;12.65;;
52033;SDS011;38045;52.988;6.536;2023-08-30T05:20:36;14.10;;;12.63;;
52033;SDS011;38045;52.988;6.536;2023-08-30T05:23:02;15.52;;;13.90;;
52033;SDS011;38045;52.988;6.536;2023-08-30T05:25:28;14.77;;;13.25;;
52033;SDS011;38045;52.988;6.536;2023-08-30T05:27:54;16.58;;;14.40;;
52033;SDS011;38045;52.988;6.536;2023-08-30T05:30:19;18.95;;;15.15;;
52033;SDS011;38045;52.988;6.536;2023-08-30T05:32:45;16.90;;;14.88;;
52033;SDS011;38045;52.988;6.536;2023-08-30T05:35:10;16.25;;;14.60;;
52033;SDS011;38045;52.988;6.536;2023-08-30T05:37:36;15.88;;;13.93;;
52033;SDS011;38045;52.988;6.536;2023-08-30T05:40:02;16.17;;;13.40;;
52033;SDS011;38045;52.988;6.536;2023-08-30T05:42:28;16.85;;;15.05;;
52033;SDS011;38045;52.988;6.536;2023-08-30T05:44:54;15.05;;;13.45;;
52033;SDS011;38045;52.988;6.536;2023-08-30T05:47:20;15.13;;;13.50;;
52033;SDS011;38045;52.988;6.536;2023-08-30T05:49:46;15.88;;;14.27;;
52033;SDS011;38045;52.988;6.536;2023-08-30T05:52:12;14.35;;;12.85;;
52033;SDS011;38045;52.988;6.536;2023-08-30T05:54:37;18.15;;;13.93;;
52033;SDS011;38045;52.988;6.536;2023-08-30T05:57:03;15.32;;;13.73;;
52033;SDS011;38045;52.988;6.536;2023-08-30T05:59:29;16.52;;;13.55;;
52033;SDS011;38045;52.988;6.536;2023-08-30T06:01:55;13.43;;;11.75;;
52033;SDS011;38045;52.988;6.536;2023-08-30T06:04:20;21.02;;;15.82;;
52033;SDS011;38045;52.988;6.536;2023-08-30T06:06:46;17.13;;;12.82;;
52033;SDS011;38045;52.988;6.536;2023-08-30T06:09:11;14.88;;;13.35;;
52033;SDS011;38045;52.988;6.536;2023-08-30T06:11:37;14.50;;;11.38;;
52033;SDS011;38045;52.988;6.536;2023-08-30T06:14:04;15.82;;;13.45;;
52033;SDS011;38045;52.988;6.536;2023-08-30T06:16:30;15.07;;;12.90;;
52033;SDS011;38045;52.988;6.536;2023-08-30T06:18:56;14.52;;;13.02;;
52033;SDS011;38045;52.988;6.536;2023-08-30T06:21:23;16.30;;;14.52;;
52033;SDS011;38045;52.988;6.536;2023-08-30T06:23:50;15.73;;;12.73;;
52033;SDS011;38045;52.988;6.536;2023-08-30T06:26:15;14.27;;;12.82;;
52033;SDS011;38045;52.988;6.536;2023-08-30T06:28:41;14.20;;;12.70;;
52033;SDS011;38045;52.988;6.536;2023-08-30T06:31:07;13.65;;;11.55;;
52033;SDS011;38045;52.988;6.536;2023-08-30T06:33:33;14.90;;;12.98;;
52033;SDS011;38045;52.988;6.536;2023-08-30T06:35:59;14.18;;;12.73;;
52033;SDS011;38045;52.988;6.536;2023-08-30T06:38:24;18.70;;;13.48;;
52033;SDS011;38045;52.988;6.536;2023-08-30T06:40:50;17.25;;;12.77;;
52033;SDS011;38045;52.988;6.536;2023-08-30T06:43:16;15.15;;;13.25;;
52033;SDS011;38045;52.988;6.536;2023-08-30T06:45:41;16.48;;;14.35;;
52033;SDS011;38045;52.988;6.536;2023-08-30T06:48:08;16.63;;;12.48;;
52033;SDS011;38045;52.988;6.536;2023-08-30T06:50:34;16.80;;;13.25;;
52033;SDS011;38045;52.988;6.536;2023-08-30T06:53:00;15.27;;;11.77;;
52033;SDS011;38045;52.988;6.536;2023-08-30T06:55:27;15.80;;;12.90;;
52033;SDS011;38045;52.988;6.536;2023-08-30T06:57:52;16.80;;;13.35;;
52033;SDS011;38045;52.988;6.536;2023-08-30T07:00:18;14.65;;;13.02;;
52033;SDS011;38045;52.988;6.536;2023-08-30T07:02:44;16.80;;;13.10;;
52033;SDS011;38045;52.988;6.536;2023-08-30T07:05:11;15.20;;;12.82;;
52033;SDS011;38045;52.988;6.536;2023-08-30T07:07:37;14.02;;;12.48;;
52033;SDS011;38045;52.988;6.536;2023-08-30T07:10:03;17.58;;;13.63;;
52033;SDS011;38045;52.988;6.536;2023-08-30T07:12:29;20.60;;;12.10;;
52033;SDS011;38045;52.988;6.536;2023-08-30T07:14:55;18.08;;;12.40;;
52033;SDS011;38045;52.988;6.536;2023-08-30T07:17:20;20.00;;;13.82;;
52033;SDS011;38045;52.988;6.536;2023-08-30T07:19:46;19.95;;;14.05;;
52033;SDS011;38045;52.988;6.536;2023-08-30T07:22:12;21.58;;;13.43;;
52033;SDS011;38045;52.988;6.536;2023-08-30T07:24:38;14.88;;;12.10;;
52033;SDS011;38045;52.988;6.536;2023-08-30T07:27:04;15.75;;;12.93;;
52033;SDS011;38045;52.988;6.536;2023-08-30T07:29:30;16.92;;;13.10;;
52033;SDS011;38045;52.988;6.536;2023-08-30T07:31:56;15.30;;;10.93;;
52033;SDS011;38045;52.988;6.536;2023-08-30T07:34:22;14.57;;;12.52;;
52033;SDS011;38045;52.988;6.536;2023-08-30T07:36:47;16.73;;;12.40;;
52033;SDS011;38045;52.988;6.536;2023-08-30T07:39:13;14.05;;;11.15;;
52033;SDS011;38045;52.988;6.536;2023-08-30T07:41:39;15.77;;;13.27;;
52033;SDS011;38045;52.988;6.536;2023-08-30T07:44:05;12.43;;;11.23;;
52033;SDS011;38045;52.988;6.536;2023-08-30T07:46:30;13.43;;;11.02;;
52033;SDS011;38045;52.988;6.536;2023-08-30T07:48:56;17.15;;;12.90;;
52033;SDS011;38045;52.988;6.536;2023-08-30T07:51:21;12.02;;;10.55;;
52033;SDS011;38045;52.988;6.536;2023-08-30T07:53:47;17.30;;;12.90;;
52033;SDS011;38045;52.988;6.536;2023-08-30T07:56:13;22.67;;;11.32;;
52033;SDS011;38045;52.988;6.536;2023-08-30T07:58:40;12.55;;;10.73;;
52033;SDS011;38045;52.988;6.536;2023-08-30T08:01:07;12.95;;;11.07;;
52033;SDS011;38045;52.988;6.536;2023-08-30T08:03:33;11.13;;;9.43;;
52033;SDS011;38045;52.988;6.536;2023-08-30T08:05:59;13.50;;;12.10;;
52033;SDS011;38045;52.988;6.536;2023-08-30T08:08:25;17.67;;;11.43;;
52033;SDS011;38045;52.988;6.536;2023-08-30T08:10:50;11.40;;;9.00;;
52033;SDS011;38045;52.988;6.536;2023-08-30T08:13:16;13.55;;;12.00;;
52033;SDS011;38045;52.988;6.536;2023-08-30T08:15:42;12.40;;;10.32;;
52033;SDS011;38045;52.988;6.536;2023-08-30T08:18:09;13.73;;;11.65;;
52033;SDS011;38045;52.988;6.536;2023-08-30T08:20:35;15.85;;;12.57;;
52033;SDS011;38045;52.988;6.536;2023-08-30T08:23:01;16.20;;;11.25;;
52033;SDS011;38045;52.988;6.536;2023-08-30T08:25:27;16.13;;;11.60;;
52033;SDS011;38045;52.988;6.536;2023-08-30T08:27:53;14.02;;;11.38;;
52033;SDS011;38045;52.988;6.536;2023-08-30T08:30:19;14.45;;;10.40;;
52033;SDS011;38045;52.988;6.536;2023-08-30T08:32:45;14.88;;;10.45;;
52033;SDS011;38045;52.988;6.536;2023-08-30T08:35:12;14.40;;;11.77;;
52033;SDS011;38045;52.988;6.536;2023-08-30T08:37:38;12.98;;;11.20;;
52033;SDS011;38045;52.988;6.536;2023-08-30T08:40:04;14.82;;;11.90;;
52033;SDS011;38045;52.988;6.536;2023-08-30T08:42:34;14.07;;;10.95;;
52033;SDS011;38045;52.988;6.536;2023-08-30T08:45:01;14.98;;;12.70;;
52033;SDS011;38045;52.988;6.536;2023-08-30T08:47:29;16.17;;;11.57;;
52033;SDS011;38045;52.988;6.536;2023-08-30T08:49:56;13.60;;;12.10;;
52033;SDS011;38045;52.988;6.536;2023-08-30T08:52:23;16.90;;;12.27;;
52033;SDS011;38045;52.988;6.536;2023-08-30T08:54:49;13.82;;;11.98;;
52033;SDS011;38045;52.988;6.536;2023-08-30T08:57:15;11.95;;;10.63;;
52033;SDS011;38045;52.988;6.536;2023-08-30T08:59:42;17.60;;;12.68;;
52033;SDS011;38045;52.988;6.536;2023-08-30T09:02:08;14.27;;;10.88;;
52033;SDS011;38045;52.988;6.536;2023-08-30T09:04:38;16.17;;;10.73;;
52033;SDS011;38045;52.988;6.536;2023-08-30T09:07:04;13.13;;;11.43;;
52033;SDS011;38045;52.988;6.536;2023-08-30T09:09:30;12.43;;;9.68;;
52033;SDS011;38045;52.988;6.536;2023-08-30T09:11:56;15.70;;;11.00;;
52033;SDS011;38045;52.988;6.536;2023-08-30T09:14:21;12.90;;;10.15;;
52033;SDS011;38045;52.988;6.536;2023-08-30T09:17:01;12.50;;;11.23;;
52033;SDS011;38045;52.988;6.536;2023-08-30T09:19:27;11.63;;;10.07;;
52033;SDS011;38045;52.988;6.536;2023-08-30T09:21:54;14.32;;;10.32;;
52033;SDS011;38045;52.988;6.536;2023-08-30T09:24:20;14.02;;;10.57;;
52033;SDS011;38045;52.988;6.536;2023-08-30T09:26:50;13.07;;;11.00;;
52033;SDS011;38045;52.988;6.536;2023-08-30T09:29:18;14.15;;;10.75;;
52033;SDS011;38045;52.988;6.536;2023-08-30T09:31:44;13.65;;;11.07;;
52033;SDS011;38045;52.988;6.536;2023-08-30T09:34:10;13.55;;;10.25;;
52033;SDS011;38045;52.988;6.536;2023-08-30T09:39:03;14.38;;;11.77;;
52033;SDS011;38045;52.988;6.536;2023-08-30T09:41:33;12.25;;;9.57;;
52033;SDS011;38045;52.988;6.536;2023-08-30T09:43:59;12.70;;;11.40;;
52033;SDS011;38045;52.988;6.536;2023-08-30T09:46:25;13.63;;;10.60;;
52033;SDS011;38045;52.988;6.536;2023-08-30T09:48:52;10.45;;;9.32;;
52033;SDS011;38045;52.988;6.536;2023-08-30T09:51:19;14.38;;;11.18;;
52033;SDS011;38045;52.988;6.536;2023-08-30T09:53:49;12.77;;;10.52;;
52033;SDS011;38045;52.988;6.536;2023-08-30T09:56:18;13.93;;;10.90;;
52033;SDS011;38045;52.988;6.536;2023-08-30T09:58:44;16.83;;;11.27;;
52033;SDS011;38045;52.988;6.536;2023-08-30T10:01:10;13.52;;;10.40;;
52033;SDS011;38045;52.988;6.536;2023-08-30T10:03:36;15.88;;;13.20;;
52033;SDS011;38045;52.988;6.536;2023-08-30T10:06:02;13.50;;;12.00;;
52033;SDS011;38045;52.988;6.536;2023-08-30T10:08:30;13.63;;;11.50;;
52033;SDS011;38045;52.988;6.536;2023-08-30T10:10:58;18.37;;;12.27;;
52033;SDS011;38045;52.988;6.536;2023-08-30T10:13:25;14.57;;;11.43;;
52033;SDS011;38045;52.988;6.536;2023-08-30T10:15:51;12.40;;;11.18;;
52033;SDS011;38045;52.988;6.536;2023-08-30T10:18:25;14.68;;;13.05;;
52033;SDS011;38045;52.988;6.536;2023-08-30T10:23:20;13.85;;;10.77;;
52033;SDS011;38045;52.988;6.536;2023-08-30T10:25:48;10.82;;;8.93;;
52033;SDS011;38045;52.988;6.536;2023-08-30T10:28:15;13.98;;;8.10;;
52033;SDS011;38045;52.988;6.536;2023-08-30T10:30:42;11.73;;;10.52;;
52033;SDS011;38045;52.988;6.536;2023-08-30T10:33:12;10.60;;;7.57;;
52033;SDS011;38045;52.988;6.536;2023-08-30T10:35:46;8.05;;;7.25;;
52033;SDS011;38045;52.988;6.536;2023-08-30T10:38:24;8.93;;;8.02;;
52033;SDS011;38045;52.988;6.536;2023-08-30T10:40:53;7.03;;;6.32;;
52033;SDS011;38045;52.988;6.536;2023-08-30T10:43:27;6.63;;;6.03;;
52033;SDS011;38045;52.988;6.536;2023-08-30T10:46:01;9.63;;;7.85;;
52033;SDS011;38045;52.988;6.536;2023-08-30T10:48:37;9.65;;;7.63;;
52033;SDS011;38045;52.988;6.536;2023-08-30T10:51:06;7.10;;;6.32;;
52033;SDS011;38045;52.988;6.536;2023-08-30T10:53:55;8.80;;;7.10;;
52033;SDS011;38045;52.988;6.536;2023-08-30T10:56:27;11.45;;;10.38;;
52033;SDS011;38045;52.988;6.536;2023-08-30T10:58:54;14.38;;;9.25;;
52033;SDS011;38045;52.988;6.536;2023-08-30T11:01:20;12.10;;;8.90;;
52033;SDS011;38045;52.988;6.536;2023-08-30T11:03:46;9.13;;;8.07;;
52033;SDS011;38045;52.988;6.536;2023-08-30T11:06:15;11.00;;;9.93;;
52033;SDS011;38045;52.988;6.536;2023-08-30T11:08:43;11.98;;;10.75;;
52033;SDS011;38045;52.988;6.536;2023-08-30T11:11:09;10.40;;;9.48;;
52033;SDS011;38045;52.988;6.536;2023-08-30T11:13:39;15.23;;;10.15;;
52033;SDS011;38045;52.988;6.536;2023-08-30T11:16:05;11.35;;;10.13;;
52033;SDS011;38045;52.988;6.536;2023-08-30T11:18:33;13.90;;;11.48;;
52033;SDS011;38045;52.988;6.536;2023-08-30T11:21:02;13.57;;;11.85;;
52033;SDS011;38045;52.988;6.536;2023-08-30T11:23:28;11.05;;;9.80;;
52033;SDS011;38045;52.988;6.536;2023-08-30T11:25:54;12.82;;;9.35;;
52033;SDS011;38045;52.988;6.536;2023-08-30T11:28:26;12.27;;;9.18;;
52033;SDS011;38045;52.988;6.536;2023-08-30T11:30:55;13.02;;;8.80;;
52033;SDS011;38045;52.988;6.536;2023-08-30T11:33:21;9.75;;;8.75;;
52033;SDS011;38045;52.988;6.536;2023-08-30T11:35:51;11.38;;;9.18;;
52033;SDS011;38045;52.988;6.536;2023-08-30T11:38:19;13.10;;;9.30;;
52033;SDS011;38045;52.988;6.536;2023-08-30T11:43:13;12.60;;;10.73;;
52033;SDS011;38045;52.988;6.536;2023-08-30T11:45:40;13.60;;;10.18;;
52033;SDS011;38045;52.988;6.536;2023-08-30T11:48:06;11.70;;;10.60;;
52033;SDS011;38045;52.988;6.536;2023-08-30T11:50:32;11.82;;;10.57;;
52033;SDS011;38045;52.988;6.536;2023-08-30T11:52:58;12.50;;;10.70;;
52033;SDS011;38045;52.988;6.536;2023-08-30T11:55:25;13.05;;;10.48;;
52033;SDS011;38045;52.988;6.536;2023-08-30T11:57:51;14.02;;;12.13;;
52033;SDS011;38045;52.988;6.536;2023-08-30T12:00:20;11.88;;;10.65;;
52033;SDS011;38045;52.988;6.536;2023-08-30T12:05:15;13.05;;;10.73;;
52033;SDS011;38045;52.988;6.536;2023-08-30T12:07:42;11.18;;;9.85;;
52033;SDS011;38045;52.988;6.536;2023-08-30T12:10:08;11.50;;;9.73;;
52033;SDS011;38045;52.988;6.536;2023-08-30T12:12:35;17.63;;;12.25;;
52033;SDS011;38045;52.988;6.536;2023-08-30T12:15:07;12.80;;;10.32;;
52033;SDS011;38045;52.988;6.536;2023-08-30T12:17:34;10.60;;;9.40;;
52033;SDS011;38045;52.988;6.536;2023-08-30T12:20:00;13.30;;;11.88;;
52033;SDS011;38045;52.988;6.536;2023-08-30T12:25:21;12.60;;;11.30;;
52033;SDS011;38045;52.988;6.536;2023-08-30T12:27:48;12.40;;;11.05;;
52033;SDS011;38045;52.988;6.536;2023-08-30T12:30:17;13.85;;;12.35;;
52033;SDS011;38045;52.988;6.536;2023-08-30T12:35:09;11.65;;;10.32;;
52033;SDS011;38045;52.988;6.536;2023-08-30T12:37:35;11.00;;;9.73;;
52033;SDS011;38045;52.988;6.536;2023-08-30T12:40:01;11.15;;;10.05;;
52033;SDS011;38045;52.988;6.536;2023-08-30T12:42:26;10.98;;;9.88;;
52033;SDS011;38045;52.988;6.536;2023-08-30T12:44:52;11.32;;;10.20;;
52033;SDS011;38045;52.988;6.536;2023-08-30T12:47:18;9.88;;;8.13;;
52033;SDS011;38045;52.988;6.536;2023-08-30T12:49:43;10.25;;;9.00;;
52033;SDS011;38045;52.988;6.536;2023-08-30T12:52:09;11.63;;;10.52;;
52033;SDS011;38045;52.988;6.536;2023-08-30T12:54:35;8.95;;;8.15;;
52033;SDS011;38045;52.988;6.536;2023-08-30T12:57:00;10.80;;;9.55;;
52033;SDS011;38045;52.988;6.536;2023-08-30T12:59:26;8.95;;;8.05;;
52033;SDS011;38045;52.988;6.536;2023-08-30T13:01:52;9.15;;;7.68;;
52033;SDS011;38045;52.988;6.536;2023-08-30T13:04:17;51.60;;;18.27;;
52033;SDS011;38045;52.988;6.536;2023-08-30T13:06:43;29.83;;;14.50;;
52033;SDS011;38045;52.988;6.536;2023-08-30T13:09:08;9.75;;;8.75;;
52033;SDS011;38045;52.988;6.536;2023-08-30T13:11:34;8.05;;;7.18;;
52033;SDS011;38045;52.988;6.536;2023-08-30T13:14:00;8.20;;;7.50;;
52033;SDS011;38045;52.988;6.536;2023-08-30T13:16:25;8.63;;;7.82;;
52033;SDS011;38045;52.988;6.536;2023-08-30T13:18:51;8.32;;;7.53;;
52033;SDS011;38045;52.988;6.536;2023-08-30T13:21:17;7.93;;;7.28;;
52033;SDS011;38045;52.988;6.536;2023-08-30T13:23:42;9.68;;;8.77;;
52033;SDS011;38045;52.988;6.536;2023-08-30T13:26:08;8.63;;;7.97;;
52033;SDS011;38045;52.988;6.536;2023-08-30T13:28:34;7.10;;;6.50;;
52033;SDS011;38045;52.988;6.536;2023-08-30T13:31:00;11.90;;;8.32;;
52033;SDS011;38045;52.988;6.536;2023-08-30T13:33:26;8.32;;;7.57;;
52033;SDS011;38045;52.988;6.536;2023-08-30T13:35:52;8.70;;;7.18;;
52033;SDS011;38045;52.988;6.536;2023-08-30T13:38:18;12.32;;;9.75;;
52033;SDS011;38045;52.988;6.536;2023-08-30T13:40:44;7.63;;;6.82;;
52033;SDS011;38045;52.988;6.536;2023-08-30T13:43:10;9.02;;;7.93;;
52033;SDS011;38045;52.988;6.536;2023-08-30T13:45:36;8.55;;;7.68;;
52033;SDS011;38045;52.988;6.536;2023-08-30T13:48:01;9.25;;;8.00;;
52033;SDS011;38045;52.988;6.536;2023-08-30T13:50:28;9.38;;;7.65;;
52033;SDS011;38045;52.988;6.536;2023-08-30T13:52:56;8.40;;;7.50;;
52033;SDS011;38045;52.988;6.536;2023-08-30T13:55:22;6.68;;;6.07;;
52033;SDS011;38045;52.988;6.536;2023-08-30T13:57:48;6.15;;;5.55;;
52033;SDS011;38045;52.988;6.536;2023-08-30T14:00:14;7.15;;;6.28;;
52033;SDS011;38045;52.988;6.536;2023-08-30T14:02:40;9.07;;;7.95;;
52033;SDS011;38045;52.988;6.536;2023-08-30T14:05:06;7.00;;;6.40;;
52033;SDS011;38045;52.988;6.536;2023-08-30T14:07:32;6.68;;;6.07;;
52033;SDS011;38045;52.988;6.536;2023-08-30T14:09:58;5.97;;;5.38;;
52033;SDS011;38045;52.988;6.536;2023-08-30T14:12:24;5.85;;;5.32;;
52033;SDS011;38045;52.988;6.536;2023-08-30T14:14:49;4.65;;;4.25;;
52033;SDS011;38045;52.988;6.536;2023-08-30T14:17:15;7.50;;;4.90;;
52033;SDS011;38045;52.988;6.536;2023-08-30T14:19:41;4.57;;;4.20;;
52033;SDS011;38045;52.988;6.536;2023-08-30T14:22:06;4.72;;;4.35;;
52033;SDS011;38045;52.988;6.536;2023-08-30T14:24:32;5.28;;;4.78;;
52033;SDS011;38045;52.988;6.536;2023-08-30T14:26:58;4.60;;;3.88;;
52033;SDS011;38045;52.988;6.536;2023-08-30T14:29:28;4.28;;;3.65;;
52033;SDS011;38045;52.988;6.536;2023-08-30T14:31:53;4.90;;;2.95;;
52033;SDS011;38045;52.988;6.536;2023-08-30T14:34:22;3.58;;;3.25;;
52033;SDS011;38045;52.988;6.536;2023-08-30T14:36:47;4.40;;;3.50;;
52033;SDS011;38045;52.988;6.536;2023-08-30T14:39:13;3.72;;;3.42;;
52033;SDS011;38045;52.988;6.536;2023-08-30T14:41:39;4.78;;;4.15;;
52033;SDS011;38045;52.988;6.536;2023-08-30T14:44:05;3.97;;;3.45;;